Time;durP1;ratioP1;P1;durP2;ratioP2;P2;SDS_P1;SDS_P2;PMS_P1;PMS_P2;Temp;Humidity;BMP_temperature;BMP_pressure;BME280_temperature;BME280_humidity;BME280_pressure;Samples;Min_cycle;Max_cycle;Signal;HPM_P1;HPM_P2
2021/01/31 00:00:22;;;;;;;9.13;7.28;;;;;;;1.03;80.22;97263.69;5074031;28;20078;-67
2021/01/31 00:02:50;;;;;;;8.38;6.75;;;;;;;1.08;80.25;97269.97;5073519;28;20064;-66
2021/01/31 00:05:18;;;;;;;8.27;6.65;;;;;;;1.07;80.18;97268.38;5073294;28;20037;-66
2021/01/31 00:07:45;;;;;;;8.90;7.45;;;;;;;1.08;80.15;97266.56;5074691;28;20044;-66
2021/01/31 00:10:14;;;;;;;10.35;7.57;;;;;;;1.04;79.73;97262.69;5073214;28;20414;-66
2021/01/31 00:12:40;;;;;;;10.63;7.93;;;;;;;1.05;80.13;97267.72;5072116;28;20059;-66
2021/01/31 00:15:10;;;;;;;10.00;8.57;;;;;;;1.07;80.21;97260.56;5070380;28;20045;-67
2021/01/31 00:17:36;;;;;;;9.50;8.35;;;;;;;1.12;80.05;97271.25;5071758;28;20040;-68
2021/01/31 00:20:05;;;;;;;10.25;8.73;;;;;;;1.13;80.26;97272.88;5071833;28;20509;-67
2021/01/31 00:22:32;;;;;;;9.88;7.78;;;;;;;1.17;79.90;97270.75;5071389;28;20048;-67
2021/01/31 00:24:58;;;;;;;12.18;9.80;;;;;;;1.19;79.98;97276.59;5071550;28;20040;-67
2021/01/31 00:27:25;;;;;;;10.68;8.70;;;;;;;1.17;79.71;97273.34;5071591;28;20114;-66
2021/01/31 00:29:53;;;;;;;9.68;8.63;;;;;;;1.17;79.83;97273.34;5071641;28;20051;-67
2021/01/31 00:32:23;;;;;;;11.63;9.13;;;;;;;1.27;79.88;97278.38;5071789;28;20090;-67
2021/01/31 00:34:51;;;;;;;11.52;9.18;;;;;;;1.33;79.84;97277.66;5071363;28;20491;-67
2021/01/31 00:37:19;;;;;;;10.88;8.75;;;;;;;1.26;79.33;97272.31;5071632;28;20383;-67
2021/01/31 00:39:47;;;;;;;9.85;8.30;;;;;;;1.32;79.55;97289.06;5073200;28;20067;-68
2021/01/31 00:42:16;;;;;;;9.02;7.90;;;;;;;1.29;79.22;97285.00;5076231;28;20040;-67
2021/01/31 00:44:48;;;;;;;10.70;8.57;;;;;;;1.23;79.20;97275.28;5080855;28;20143;-67
2021/01/31 00:47:15;;;;;;;10.77;8.35;;;;;;;1.17;78.71;97278.56;5090793;28;20048;-67
2021/01/31 00:49:48;;;;;;;10.00;8.63;;;;;;;1.16;79.38;97280.34;5090340;28;20092;-67
2021/01/31 00:52:16;;;;;;;10.68;8.80;;;;;;;1.17;79.46;97281.16;5083725;28;20044;-68
2021/01/31 00:54:45;;;;;;;11.23;9.10;;;;;;;1.20;79.54;97286.03;5070265;28;20040;-67
2021/01/31 00:57:13;;;;;;;10.35;8.15;;;;;;;1.13;79.33;97293.69;5072445;28;20067;-67
2021/01/31 00:59:40;;;;;;;9.73;8.20;;;;;;;1.12;79.41;97294.69;5071913;28;20041;-68
2021/01/31 01:02:11;;;;;;;13.88;9.90;;;;;;;1.11;79.63;97300.88;5072296;28;20542;-68
2021/01/31 01:04:39;;;;;;;11.35;9.05;;;;;;;1.10;79.54;97304.47;5072918;28;20045;-68
2021/01/31 01:07:09;;;;;;;11.90;8.68;;;;;;;1.11;79.43;97315.69;5072862;28;20040;-67
2021/01/31 01:09:36;;;;;;;11.95;9.82;;;;;;;1.12;79.57;97310.31;5071485;28;20059;-67
2021/01/31 01:12:05;;;;;;;11.23;8.52;;;;;;;1.15;79.58;97315.19;5071333;28;20051;-68
2021/01/31 01:14:32;;;;;;;11.32;9.43;;;;;;;1.14;79.33;97312.72;5070983;28;20051;-68
2021/01/31 01:16:59;;;;;;;13.63;10.02;;;;;;;1.19;79.69;97318.25;5071130;28;20402;-67
2021/01/31 01:19:26;;;;;;;14.07;9.85;;;;;;;1.25;79.67;97317.56;5071280;28;20040;-67
2021/01/31 01:21:53;;;;;;;12.50;9.60;;;;;;;1.19;79.07;97328.66;5071238;28;20049;-68
2021/01/31 01:24:20;;;;;;;13.07;10.18;;;;;;;1.13;79.36;97327.53;5070848;28;20044;-68
2021/01/31 01:26:47;;;;;;;11.73;9.45;;;;;;;1.14;79.47;97326.56;5071046;28;20506;-67
2021/01/31 01:29:15;;;;;;;14.00;10.52;;;;;;;1.14;79.35;97328.34;5071104;28;20052;-67
2021/01/31 01:31:42;;;;;;;14.98;11.48;;;;;;;1.08;79.59;97323.81;5071033;28;20418;-67
2021/01/31 01:34:09;;;;;;;13.88;11.35;;;;;;;1.10;79.81;97337.47;5071749;28;20064;-64
2021/01/31 01:36:36;;;;;;;13.82;10.50;;;;;;;1.11;79.81;97342.53;5074794;28;20040;-67
2021/01/31 01:39:04;;;;;;;13.88;10.63;;;;;;;1.08;79.51;97340.25;5074746;28;20067;-69
2021/01/31 01:41:36;;;;;;;13.55;10.52;;;;;;;1.04;79.49;97343.34;5074724;28;20044;-67
2021/01/31 01:44:03;;;;;;;15.10;10.85;;;;;;;1.02;79.54;97340.09;5074679;28;20059;-68
2021/01/31 01:46:37;;;;;;;14.93;10.45;;;;;;;0.97;79.28;97331.00;5074380;28;20044;-67
2021/01/31 01:49:11;;;;;;;13.82;10.40;;;;;;;0.95;79.54;97334.78;5074827;28;20429;-67
2021/01/31 01:51:43;;;;;;;14.83;10.73;;;;;;;0.92;79.36;97329.91;5074743;28;20063;-67
2021/01/31 01:54:15;;;;;;;16.02;11.13;;;;;;;0.82;79.58;97332.69;5074468;28;20052;-65
2021/01/31 01:56:46;;;;;;;17.23;12.20;;;;;;;0.85;79.74;97332.34;5074656;28;20139;-67
2021/01/31 01:59:13;;;;;;;17.15;13.02;;;;;;;0.97;80.13;97323.19;5074404;28;20082;-68
2021/01/31 02:01:44;;;;;;;15.40;11.13;;;;;;;1.02;79.56;97314.06;5074171;28;20491;-68
2021/01/31 02:04:11;;;;;;;16.45;12.15;;;;;;;0.98;79.34;97317.03;5074210;28;20502;-67
2021/01/31 02:06:38;;;;;;;16.67;12.32;;;;;;;1.01;79.73;97318.47;5074090;28;20041;-67
2021/01/31 02:09:06;;;;;;;15.25;11.65;;;;;;;1.20;80.21;97315.47;5074520;28;20048;-68
2021/01/31 02:11:33;;;;;;;13.45;10.63;;;;;;;1.24;79.50;97308.13;5073018;28;20048;-67
2021/01/31 02:14:02;;;;;;;12.82;10.40;;;;;;;1.24;79.37;97316.75;5074035;28;20049;-68
2021/01/31 02:16:38;;;;;;;13.88;10.70;;;;;;;1.30;79.09;97315.25;5073796;28;20047;-67
2021/01/31 02:19:35;;;;;;;13.93;10.60;;;;;;;1.20;78.77;97312.06;5074331;28;20048;-67
2021/01/31 02:22:18;;;;;;;12.95;10.55;;;;;;;1.14;79.01;97316.16;5030252;28;20064;-67
2021/01/31 02:25:20;;;;;;;13.02;9.75;;;;;;;1.14;79.04;97312.72;5074033;28;20055;-67
2021/01/31 02:28:19;;;;;;;16.35;12.00;;;;;;;1.14;79.32;97316.16;5073974;28;20093;-67
2021/01/31 02:31:11;;;;;;;16.70;11.48;;;;;;;1.25;79.35;97322.78;5053357;28;20438;-66
2021/01/31 02:33:49;;;;;;;14.57;11.38;;;;;;;1.30;79.13;97323.06;5073808;28;20043;-67
2021/01/31 02:36:25;;;;;;;13.68;10.38;;;;;;;1.34;78.85;97315.72;5073450;28;20049;-68
2021/01/31 02:39:03;;;;;;;15.45;11.32;;;;;;;1.21;78.70;97327.50;5073637;28;20490;-68
2021/01/31 02:41:34;;;;;;;15.88;10.50;;;;;;;1.17;78.80;97341.84;5072486;28;20051;-67
2021/01/31 02:44:06;;;;;;;13.18;9.65;;;;;;;1.09;78.64;97341.88;5072016;28;20048;-67
2021/01/31 02:46:40;;;;;;;15.77;11.68;;;;;;;1.08;78.98;97342.03;5072914;28;20041;-67
2021/01/31 02:49:14;;;;;;;15.10;11.53;;;;;;;1.06;78.99;97334.41;5073578;28;20037;-67
2021/01/31 02:51:48;;;;;;;16.70;11.48;;;;;;;1.10;79.23;97335.69;5073648;28;20295;-67
2021/01/31 02:54:21;;;;;;;16.63;11.95;;;;;;;1.17;79.13;97335.81;5073280;28;20056;-67
2021/01/31 02:56:53;;;;;;;17.13;12.35;;;;;;;1.14;78.99;97338.75;5073325;28;20060;-66
2021/01/31 02:59:24;;;;;;;17.05;12.27;;;;;;;1.08;78.83;97342.03;5073251;28;20053;-68
2021/01/31 03:01:58;;;;;;;15.50;12.27;;;;;;;1.04;78.61;97338.16;5073578;28;20060;-68
2021/01/31 03:04:34;;;;;;;16.00;11.77;;;;;;;1.02;79.00;97340.09;5073233;28;20040;-66
2021/01/31 03:07:08;;;;;;;18.58;13.00;;;;;;;0.98;78.91;97340.47;5073936;28;20052;-65
2021/01/31 03:09:43;;;;;;;20.67;13.57;;;;;;;0.92;78.91;97342.91;5075673;28;20079;-65
2021/01/31 03:12:15;;;;;;;15.82;11.63;;;;;;;0.85;79.04;97340.16;5074300;28;20049;-65
2021/01/31 03:14:43;;;;;;;17.08;11.98;;;;;;;0.82;78.90;97343.09;5073099;28;20048;-65
2021/01/31 03:17:17;;;;;;;18.48;12.23;;;;;;;0.80;79.24;97341.63;5073081;28;20041;-67
2021/01/31 03:19:50;;;;;;;16.52;11.68;;;;;;;0.79;79.21;97348.63;5073162;28;20067;-66
2021/01/31 03:22:22;;;;;;;17.70;12.30;;;;;;;0.75;79.24;97352.53;5073314;28;20092;-67
2021/01/31 03:24:52;;;;;;;16.52;10.88;;;;;;;0.77;79.51;97349.75;5073054;28;20041;-68
2021/01/31 03:27:22;;;;;;;15.52;11.43;;;;;;;0.69;79.28;97346.22;5073378;28;20040;-67
2021/01/31 03:29:49;;;;;;;18.88;13.13;;;;;;;0.69;79.26;97348.00;5073311;28;20063;-67
2021/01/31 03:32:21;;;;;;;17.25;12.35;;;;;;;0.72;79.55;97355.47;5072742;28;20052;-66
2021/01/31 03:34:53;;;;;;;17.13;11.77;;;;;;;0.72;79.33;97352.88;5072408;28;20071;-67
2021/01/31 03:37:23;;;;;;;15.88;11.43;;;;;;;0.68;79.15;97352.38;5072831;28;20055;-67
2021/01/31 03:39:51;;;;;;;17.70;12.13;;;;;;;0.69;79.51;97353.19;5072513;28;20051;-67
2021/01/31 03:42:18;;;;;;;20.63;13.13;;;;;;;0.72;79.32;97353.66;5071343;28;20067;-67
2021/01/31 03:44:45;;;;;;;19.90;13.13;;;;;;;0.74;79.29;97349.13;5072778;28;20049;-67
2021/01/31 03:47:22;;;;;;;19.50;14.02;;;;;;;0.74;79.14;97335.31;5073202;28;20040;-68
2021/01/31 03:49:55;;;;;;;20.85;14.75;;;;;;;0.77;79.40;97324.56;5072802;28;20044;-68
2021/01/31 03:52:23;;;;;;;19.35;12.93;;;;;;;0.81;79.59;97333.66;5072691;28;20049;-67
2021/01/31 03:54:50;;;;;;;14.93;10.48;;;;;;;0.82;79.20;97334.50;5070901;28;20148;-67
2021/01/31 03:57:21;;;;;;;15.15;11.18;;;;;;;0.83;79.13;97336.09;5071825;28;20037;-66
2021/01/31 03:59:54;;;;;;;16.60;12.23;;;;;;;0.85;79.31;97337.53;5072508;28;20052;-67
2021/01/31 04:02:25;;;;;;;14.50;10.48;;;;;;;0.85;78.80;97339.34;5072590;28;20514;-66
2021/01/31 04:04:54;;;;;;;14.60;10.45;;;;;;;0.86;79.01;97341.78;5072218;28;20048;-66
2021/01/31 04:07:25;;;;;;;15.45;11.30;;;;;;;0.84;78.97;97338.53;5072185;28;20040;-65
2021/01/31 04:09:52;;;;;;;14.70;9.90;;;;;;;0.82;78.70;97340.50;5072423;28;20101;-66
2021/01/31 04:12:22;;;;;;;13.10;9.20;;;;;;;0.83;78.81;97343.91;5072182;28;20048;-65
2021/01/31 04:14:54;;;;;;;14.05;9.98;;;;;;;0.82;78.59;97342.28;5072097;28;20041;-66
2021/01/31 04:17:22;;;;;;;14.02;10.60;;;;;;;0.73;78.59;97339.72;5072367;28;20044;-66
2021/01/31 04:19:49;;;;;;;17.35;11.50;;;;;;;0.77;78.87;97349.75;5072207;28;20098;-66
2021/01/31 04:22:16;;;;;;;16.60;11.70;;;;;;;0.72;78.76;97364.06;5072234;28;20049;-67
2021/01/31 04:24:43;;;;;;;15.73;11.27;;;;;;;0.70;78.95;97357.44;5082138;28;20063;-64
2021/01/31 04:27:10;;;;;;;19.15;12.93;;;;;;;0.68;78.95;97356.78;5096147;28;20039;-65
2021/01/31 04:29:36;;;;;;;16.05;11.18;;;;;;;0.71;78.75;97359.06;5090490;28;20127;-67
2021/01/31 04:32:04;;;;;;;16.05;11.57;;;;;;;0.69;78.70;97354.03;5072468;28;20059;-67
2021/01/31 04:34:31;;;;;;;17.92;12.43;;;;;;;0.67;78.85;97355.97;5071797;28;20052;-67
2021/01/31 04:36:57;;;;;;;17.20;12.48;;;;;;;0.71;79.06;97357.25;5072111;28;20040;-67
2021/01/31 04:39:26;;;;;;;16.27;12.15;;;;;;;0.71;78.93;97359.84;5071793;28;20486;-67
2021/01/31 04:41:52;;;;;;;18.77;12.88;;;;;;;0.78;79.05;97367.00;5071988;28;20040;-67
2021/01/31 04:44:21;;;;;;;18.23;11.25;;;;;;;0.77;78.75;97368.78;5071708;28;20058;-66
2021/01/31 04:46:50;;;;;;;16.23;12.02;;;;;;;0.73;78.64;97367.50;5071673;28;20040;-66
2021/01/31 04:49:35;;;;;;;19.08;12.80;;;;;;;0.73;78.71;97364.88;5072186;28;20047;-66
2021/01/31 04:52:14;;;;;;;17.77;11.50;;;;;;;0.73;78.55;97354.47;5071874;28;20041;-67
2021/01/31 04:55:03;;;;;;;17.45;11.98;;;;;;;0.66;78.64;97356.16;5071468;28;20389;-67
2021/01/31 04:57:38;;;;;;;19.35;13.25;;;;;;;0.66;78.76;97356.94;5071707;28;20495;-67
2021/01/31 05:00:08;;;;;;;17.17;11.93;;;;;;;0.60;78.66;97364.59;5071969;28;20509;-66
2021/01/31 05:02:39;;;;;;;16.85;11.55;;;;;;;0.58;78.62;97358.75;5071739;28;20051;-66
2021/01/31 05:05:17;;;;;;;18.33;12.43;;;;;;;0.57;78.81;97363.16;5071454;28;20048;-67
2021/01/31 05:07:51;;;;;;;20.70;13.75;;;;;;;0.58;78.95;97363.97;5071584;28;20048;-66
2021/01/31 05:10:19;;;;;;;18.10;12.20;;;;;;;0.59;78.79;97365.56;5075891;28;20041;-67
2021/01/31 05:13:05;;;;;;;16.60;11.75;;;;;;;0.56;78.84;97360.69;5074286;28;20059;-67
2021/01/31 05:15:38;;;;;;;20.73;13.65;;;;;;;0.53;78.86;97363.63;5075415;28;20036;-67
2021/01/31 05:18:06;;;;;;;23.83;14.55;;;;;;;0.53;79.13;97361.00;5075480;28;20498;-67
2021/01/31 05:20:35;;;;;;;19.35;12.32;;;;;;;0.57;79.10;97357.94;5075830;28;20045;-66
2021/01/31 05:23:04;;;;;;;20.58;13.05;;;;;;;0.52;78.90;97360.22;5075589;28;20044;-67
2021/01/31 05:25:36;;;;;;;20.15;12.77;;;;;;;0.44;78.90;97361.03;5075553;28;20028;-67
2021/01/31 05:28:06;;;;;;;23.42;14.50;;;;;;;0.44;79.23;97363.63;5075585;28;20577;-66
2021/01/31 05:30:39;;;;;;;18.50;13.20;;;;;;;0.48;79.19;97364.91;5077819;28;20040;-64
2021/01/31 05:33:09;;;;;;;22.48;15.00;;;;;;;0.50;79.40;97359.56;5078918;28;20050;-66
2021/01/31 05:35:39;;;;;;;20.52;13.60;;;;;;;0.54;79.20;97366.06;5078276;28;20040;-66
2021/01/31 05:38:06;;;;;;;22.02;14.52;;;;;;;0.54;78.97;97368.66;5078002;28;20055;-68
2021/01/31 05:40:36;;;;;;;20.27;13.30;;;;;;;0.55;79.15;97362.47;5076091;28;20406;-69
2021/01/31 05:43:04;;;;;;;21.80;13.88;;;;;;;0.60;79.23;97369.78;5075137;28;20037;-66
2021/01/31 05:45:40;;;;;;;19.77;13.23;;;;;;;0.63;79.11;97372.88;5074896;28;20047;-69
2021/01/31 05:48:18;;;;;;;20.45;13.57;;;;;;;0.67;78.91;97375.97;5075016;28;20055;-66
2021/01/31 05:50:46;;;;;;;21.63;13.70;;;;;;;0.62;78.68;97371.25;5074992;28;20037;-67
2021/01/31 05:53:37;;;;;;;23.10;13.85;;;;;;;0.58;78.75;97390.78;5074980;28;20052;-66
2021/01/31 05:56:20;;;;;;;21.20;13.57;;;;;;;0.55;78.77;97392.88;5059703;28;20063;-66
2021/01/31 05:58:47;;;;;;;24.67;14.23;;;;;;;0.56;78.83;97399.69;5074778;28;20398;-67
2021/01/31 06:01:15;;;;;;;22.30;15.02;;;;;;;0.57;78.81;97407.34;5074798;28;20421;-66
2021/01/31 06:03:42;;;;;;;21.83;14.07;;;;;;;0.56;78.92;97405.72;5074776;28;20048;-65
2021/01/31 06:06:11;;;;;;;21.52;14.23;;;;;;;0.57;79.06;97402.16;5074327;28;20137;-67
2021/01/31 06:08:41;;;;;;;24.85;14.52;;;;;;;0.57;78.89;97416.91;5074766;28;20452;-66
2021/01/31 06:11:11;;;;;;;21.48;14.73;;;;;;;0.54;78.44;97409.47;5074648;28;20048;-67
2021/01/31 06:13:39;;;;;;;24.63;15.57;;;;;;;0.55;78.92;97414.50;5074739;28;20087;-66
2021/01/31 06:16:15;;;;;;;23.52;16.13;;;;;;;0.60;78.82;97417.41;5074388;28;20040;-67
2021/01/31 06:18:47;;;;;;;24.48;15.07;;;;;;;0.60;78.67;97419.19;5073255;28;20061;-67
2021/01/31 06:21:15;;;;;;;21.70;14.35;;;;;;;0.52;78.71;97422.63;5073897;28;20517;-67
2021/01/31 06:23:44;;;;;;;21.30;14.18;;;;;;;0.51;78.37;97430.59;5074621;28;20044;-67
2021/01/31 06:26:22;;;;;;;22.42;15.02;;;;;;;0.48;78.62;97423.91;5074088;28;20491;-66
2021/01/31 06:28:53;;;;;;;24.20;15.63;;;;;;;0.58;79.11;97429.78;5074431;28;20033;-67
2021/01/31 06:31:28;;;;;;;22.35;14.23;;;;;;;0.66;78.86;97427.19;5074517;28;20052;-66
2021/01/31 06:33:55;;;;;;;23.83;15.77;;;;;;;0.64;78.21;97433.50;5074345;28;20055;-67
2021/01/31 06:36:36;;;;;;;25.88;15.70;;;;;;;0.63;78.47;97430.09;5074067;28;20044;-67
2021/01/31 06:39:13;;;;;;;22.45;15.00;;;;;;;0.68;78.38;97450.41;5074215;28;20037;-67
2021/01/31 06:41:58;;;;;;;22.33;15.13;;;;;;;0.62;78.30;97446.69;5074186;28;20579;-67
2021/01/31 06:44:42;;;;;;;33.10;21.55;;;;;;;0.61;78.53;97450.25;5074161;28;20044;-67
2021/01/31 06:47:15;;;;;;;;;;;;;;;0.60;78.58;97448.63;5073278;28;20059;-66
2021/01/31 06:49:52;;;;;;;25.42;14.65;;;;;;;0.56;78.30;97444.72;5074333;28;19957;-66
2021/01/31 06:52:30;;;;;;;23.40;15.68;;;;;;;0.57;78.38;97453.31;5073991;28;20049;-67
2021/01/31 06:55:11;;;;;;;24.77;16.30;;;;;;;0.56;78.50;97462.91;5073514;28;20044;-67
2021/01/31 06:58:00;;;;;;;22.95;15.00;;;;;;;0.58;78.47;97466.19;5072425;28;20048;-67
2021/01/31 07:00:55;;;;;;;24.05;16.13;;;;;;;0.64;78.49;97467.31;5073867;28;20055;-67
2021/01/31 07:04:00;;;;;;;22.42;14.82;;;;;;;0.60;78.20;97469.44;5073768;28;20071;-67
2021/01/31 07:06:44;;;;;;;24.00;16.88;;;;;;;0.53;78.08;97476.28;5073384;28;20041;-67
2021/01/31 07:09:28;;;;;;;27.08;16.17;;;;;;;0.53;78.34;97468.47;5073544;28;20579;-66
2021/01/31 07:12:04;;;;;;;22.08;15.57;;;;;;;0.49;78.45;97470.56;5089039;28;20056;-66
2021/01/31 07:14:56;;;;;;;21.83;13.98;;;;;;;0.42;78.42;97464.38;5073221;28;20045;-67
2021/01/31 07:17:29;;;;;;;24.30;15.90;;;;;;;0.43;78.15;97460.00;5073256;28;20037;-66
2021/01/31 07:20:01;;;;;;;23.30;15.27;;;;;;;0.38;78.17;97463.09;5073402;28;20407;-66
2021/01/31 07:22:38;;;;;;;24.50;15.63;;;;;;;0.41;78.60;97460.16;5073340;28;20044;-66
2021/01/31 07:25:10;;;;;;;27.80;16.17;;;;;;;0.47;78.09;97459.50;5072980;28;20036;-66
2021/01/31 07:27:43;;;;;;;21.83;14.18;;;;;;;0.44;78.15;97461.63;5073064;28;20037;-66
2021/01/31 07:30:19;;;;;;;25.15;15.15;;;;;;;0.43;78.24;97460.81;5071875;28;20127;-65
2021/01/31 07:32:57;;;;;;;23.67;13.75;;;;;;;0.44;78.17;97467.63;5072266;28;20045;-67
2021/01/31 07:35:29;;;;;;;20.98;12.90;;;;;;;0.44;78.22;97464.22;5073113;28;20056;-65
2021/01/31 07:38:07;;;;;;;21.20;13.98;;;;;;;0.58;77.98;97465.38;5073063;28;20037;-65
2021/01/31 07:40:34;;;;;;;22.85;14.18;;;;;;;0.62;77.30;97464.88;5088787;28;20044;-66
2021/01/31 07:43:01;;;;;;;21.50;13.70;;;;;;;0.64;77.61;97468.13;5073263;28;20044;-66
2021/01/31 07:45:28;;;;;;;21.40;13.45;;;;;;;0.66;77.31;97473.19;5072580;28;20044;-65
2021/01/31 07:48:42;;;;;;;20.15;12.88;;;;;;;0.66;77.32;97481.78;5072961;28;20052;-65
2021/01/31 07:51:13;;;;;;;23.55;14.98;;;;;;;0.63;77.38;97489.91;5057331;28;20056;-64
2021/01/31 07:53:46;;;;;;;24.85;20.80;;;;;;;0.66;77.52;97491.38;5108838;27;20449;-66
2021/01/31 07:56:28;;;;;;;27.50;17.73;;;;;;;0.67;77.23;97491.22;5109701;28;20051;-65
2021/01/31 07:58:57;;;;;;;22.88;15.25;;;;;;;0.73;77.41;97497.53;5089529;28;20067;-66
2021/01/31 08:01:45;;;;;;;20.30;14.25;;;;;;;0.78;76.94;97495.28;5088078;28;20426;-66
2021/01/31 08:04:34;;;;;;;22.67;14.52;;;;;;;0.74;76.64;97502.59;5089220;28;20063;-66
2021/01/31 08:07:04;;;;;;;21.77;14.93;;;;;;;0.74;76.72;97512.19;5106540;28;20040;-65
2021/01/31 08:09:53;;;;;;;21.42;14.73;;;;;;;0.78;76.99;97507.50;5113747;28;20066;-64
2021/01/31 08:12:20;;;;;;;21.40;15.35;;;;;;;0.79;76.68;97514.31;5089888;28;20048;-66
2021/01/31 08:15:12;;;;;;;22.83;16.33;;;;;;;0.88;77.19;97508.94;5089117;28;20051;-66
2021/01/31 08:17:45;;;;;;;26.42;16.40;;;;;;;0.91;77.07;97507.81;5089258;28;20044;-67
2021/01/31 08:20:39;;;;;;;24.98;15.98;;;;;;;0.94;76.41;97507.50;5089488;28;20428;-66
2021/01/31 08:23:50;;;;;;;26.75;17.45;;;;;;;0.90;76.42;97517.41;5089125;28;20437;-66
2021/01/31 08:26:40;;;;;;;22.38;15.70;;;;;;;0.89;76.20;97526.16;5088681;28;20040;-67
2021/01/31 08:29:22;;;;;;;25.35;15.82;;;;;;;0.88;76.72;97506.34;5088928;28;20052;-66
2021/01/31 08:32:15;;;;;;;21.38;15.13;;;;;;;0.92;76.61;97492.03;5088773;28;20409;-66
2021/01/31 08:35:03;;;;;;;21.90;15.38;;;;;;;0.93;76.52;97492.84;5088460;28;20055;-66
2021/01/31 08:37:30;;;;;;;22.92;14.75;;;;;;;0.91;76.17;97507.81;5088621;28;20063;-66
2021/01/31 08:39:57;;;;;;;21.13;14.00;;;;;;;0.91;76.35;97515.63;5088797;28;20462;-66
2021/01/31 08:42:24;;;;;;;22.80;15.40;;;;;;;0.93;76.16;97508.44;5088679;28;20044;-66
2021/01/31 08:45:00;;;;;;;20.67;15.60;;;;;;;0.93;76.19;97511.84;5088270;28;20056;-66
2021/01/31 08:47:39;;;;;;;26.70;17.45;;;;;;;0.90;76.27;97495.78;5087252;28;20047;-65
2021/01/31 08:50:09;;;;;;;25.17;17.00;;;;;;;0.94;76.64;97497.09;5088536;28;20037;-67
2021/01/31 08:52:36;;;;;;;25.25;16.20;;;;;;;1.03;76.45;97500.50;5088195;28;20048;-68
2021/01/31 08:55:06;;;;;;;21.95;14.93;;;;;;;1.08;76.00;97499.00;5087194;28;20093;-67
2021/01/31 08:57:34;;;;;;;23.67;15.52;;;;;;;1.09;75.98;97503.22;5087526;28;20410;-67
2021/01/31 09:00:07;;;;;;;24.42;15.20;;;;;;;1.04;75.51;97497.72;5087736;28;20051;-67
2021/01/31 09:02:34;;;;;;;20.42;14.07;;;;;;;0.98;75.79;97491.38;5088922;28;20040;-68
2021/01/31 09:05:12;;;;;;;24.38;13.90;;;;;;;0.94;75.79;97502.28;5075633;28;20051;-68
2021/01/31 09:07:42;;;;;;;22.20;14.57;;;;;;;0.81;75.83;97494.13;5075029;28;20469;-67
2021/01/31 09:10:15;;;;;;;19.15;13.18;;;;;;;0.81;76.24;97500.16;5074962;28;20047;-67
2021/01/31 09:12:43;;;;;;;23.20;15.52;;;;;;;0.80;76.42;97511.53;5074663;28;20040;-68
2021/01/31 09:15:15;;;;;;;23.55;15.35;;;;;;;0.83;76.51;97521.63;5074372;28;20422;-67
2021/01/31 09:17:43;;;;;;;23.23;15.32;;;;;;;0.86;76.40;97530.91;5074673;28;20119;-67
2021/01/31 09:20:18;;;;;;;23.52;15.63;;;;;;;0.91;76.62;97533.84;5074602;28;20487;-68
2021/01/31 09:22:48;;;;;;;26.38;17.38;;;;;;;0.95;76.33;97527.31;5074807;28;20429;-68
2021/01/31 09:25:18;;;;;;;24.20;15.80;;;;;;;1.06;76.55;97516.59;5074767;28;20037;-67
2021/01/31 09:27:58;;;;;;;23.15;14.52;;;;;;;1.09;76.05;97520.63;5073397;28;20478;-68
2021/01/31 09:30:26;;;;;;;21.92;13.95;;;;;;;1.02;75.95;97517.06;5073298;28;20052;-67
2021/01/31 09:32:58;;;;;;;25.80;16.48;;;;;;;1.07;76.01;97507.81;5074249;28;20041;-67
2021/01/31 09:35:28;;;;;;;25.52;15.45;;;;;;;1.07;75.90;97507.00;5074020;28;20379;-67
2021/01/31 09:38:09;;;;;;;25.33;16.15;;;;;;;1.15;75.97;97504.38;5074458;28;20053;-67
2021/01/31 09:40:37;;;;;;;22.30;14.38;;;;;;;1.23;75.78;97506.97;5073313;28;20064;-67
2021/01/31 09:43:07;;;;;;;22.88;15.48;;;;;;;1.21;75.34;97501.09;5074451;28;20055;-67
2021/01/31 09:45:38;;;;;;;24.75;16.77;;;;;;;1.28;75.69;97494.25;5073430;28;20053;-67
2021/01/31 09:48:10;;;;;;;24.48;15.95;;;;;;;1.32;75.50;97495.56;5074504;28;20410;-67
2021/01/31 09:50:38;;;;;;;23.58;14.75;;;;;;;1.35;75.68;97495.22;5079784;28;20104;-67
2021/01/31 09:53:05;;;;;;;22.60;15.45;;;;;;;1.35;75.08;97502.25;5077775;28;20467;-67
2021/01/31 09:55:41;;;;;;;23.73;15.40;;;;;;;1.23;75.06;97505.19;5075352;28;20048;-68
2021/01/31 09:58:18;;;;;;;22.90;15.70;;;;;;;1.43;75.69;97505.63;5072939;28;20060;-67
2021/01/31 10:00:45;;;;;;;26.17;17.10;;;;;;;1.53;74.95;97512.44;5073811;28;20044;-66
2021/01/31 10:03:22;;;;;;;25.80;16.50;;;;;;;1.51;74.84;97511.78;5073582;28;20045;-67
2021/01/31 10:05:48;;;;;;;26.42;16.45;;;;;;;1.53;75.13;97520.25;5071915;28;20060;-66
2021/01/31 10:08:18;;;;;;;25.50;17.02;;;;;;;1.49;75.06;97523.19;5073727;28;20044;-67
2021/01/31 10:10:46;;;;;;;27.25;16.60;;;;;;;1.48;74.91;97513.75;5073441;28;20044;-67
2021/01/31 10:13:19;;;;;;;30.42;19.35;;;;;;;1.42;75.14;97511.00;5073216;28;20037;-67
2021/01/31 10:15:52;;;;;;;36.27;20.63;;;;;;;1.43;75.17;97507.44;5072054;28;20045;-65
2021/01/31 10:18:29;;;;;;;27.48;16.70;;;;;;;1.35;75.44;97513.47;5071825;28;20052;-66
2021/01/31 10:21:21;;;;;;;27.70;17.75;;;;;;;1.31;75.24;97512.16;5072026;28;20048;-67
2021/01/31 10:23:49;;;;;;;26.17;16.92;;;;;;;1.34;75.79;97511.81;5073191;28;20041;-67
2021/01/31 10:26:21;;;;;;;27.58;17.38;;;;;;;1.33;75.35;97499.78;5072967;28;20048;-68
2021/01/31 10:28:53;;;;;;;26.67;17.15;;;;;;;1.31;75.81;97501.75;5073198;28;20051;-68
2021/01/31 10:31:25;;;;;;;25.67;17.63;;;;;;;1.23;75.95;97499.16;5073189;28;20052;-68
2021/01/31 10:33:53;;;;;;;26.05;17.20;;;;;;;1.25;76.17;97494.59;5072904;28;20070;-66
2021/01/31 10:36:35;;;;;;;23.77;16.42;;;;;;;1.34;76.23;97503.19;5072622;28;20506;-67
2021/01/31 10:39:25;;;;;;;26.92;16.92;;;;;;;1.36;76.01;97496.03;5073106;28;20433;-67
2021/01/31 10:41:55;;;;;;;28.40;16.35;;;;;;;1.31;75.53;97499.16;5073075;28;20521;-66
2021/01/31 10:44:25;;;;;;;27.30;16.45;;;;;;;1.30;75.75;97499.28;5072553;28;20050;-67
2021/01/31 10:46:52;;;;;;;28.02;17.90;;;;;;;1.23;76.06;97491.34;5072623;28;20037;-66
2021/01/31 10:49:19;;;;;;;28.13;18.55;;;;;;;1.28;75.98;97490.84;5072616;28;20037;-67
2021/01/31 10:51:47;;;;;;;27.75;18.23;;;;;;;1.37;76.33;97488.06;5073029;28;20048;-67
2021/01/31 10:54:15;;;;;;;28.13;18.83;;;;;;;1.41;76.11;97491.16;5072959;28;20040;-65
2021/01/31 10:56:42;;;;;;;30.20;19.50;;;;;;;1.35;76.29;97482.22;5072623;28;20401;-65
2021/01/31 10:59:09;;;;;;;31.45;19.05;;;;;;;1.40;75.94;97484.31;5072726;28;20040;-65
2021/01/31 11:01:37;;;;;;;29.63;17.77;;;;;;;1.33;75.95;97475.53;5071322;28;20084;-64
2021/01/31 11:04:04;;;;;;;33.53;18.63;;;;;;;1.34;76.45;97477.16;5072573;28;20060;-66
2021/01/31 11:06:31;;;;;;;30.83;19.08;;;;;;;1.32;76.07;97469.53;5071346;28;20044;-67
2021/01/31 11:08:57;;;;;;;29.05;19.33;;;;;;;1.27;76.37;97471.00;5072823;28;20498;-65
2021/01/31 11:11:24;;;;;;;31.70;19.02;;;;;;;1.29;76.68;97469.03;5071945;28;20051;-65
2021/01/31 11:13:50;;;;;;;33.00;18.20;;;;;;;1.28;76.42;97472.63;5073884;28;20043;-65
2021/01/31 11:16:18;;;;;;;31.75;19.60;;;;;;;1.21;76.71;97468.06;5074292;28;20041;-66
2021/01/31 11:18:46;;;;;;;35.72;21.70;;;;;;;1.24;77.03;97472.16;5074997;28;20044;-65
2021/01/31 11:21:18;;;;;;;31.02;19.08;;;;;;;1.28;77.00;97473.44;5074155;28;20120;-64
2021/01/31 11:23:45;;;;;;;33.95;20.80;;;;;;;1.20;76.90;97471.66;5074167;28;20051;-65
2021/01/31 11:26:12;;;;;;;38.58;21.70;;;;;;;1.21;77.60;97468.06;5073016;28;20048;-66
2021/01/31 11:28:38;;;;;;;36.33;21.70;;;;;;;1.27;77.37;97476.22;5072998;28;20051;-65
2021/01/31 11:31:05;;;;;;;31.88;20.40;;;;;;;1.26;77.20;97480.59;5074606;28;20045;-65
2021/01/31 11:33:32;;;;;;;32.55;20.15;;;;;;;1.29;77.54;97472.44;5074377;28;20437;-65
2021/01/31 11:35:59;;;;;;;31.13;20.45;;;;;;;1.30;77.28;97473.25;5073793;28;20041;-65
2021/01/31 11:38:26;;;;;;;33.58;21.05;;;;;;;1.33;77.19;97473.75;5073509;28;20474;-65
2021/01/31 11:40:53;;;;;;;32.40;20.45;;;;;;;1.36;76.97;97473.41;5073899;28;20067;-65
2021/01/31 11:43:20;;;;;;;32.33;20.45;;;;;;;1.33;77.16;97452.91;5072288;28;20058;-65
2021/01/31 11:45:46;;;;;;;35.72;21.98;;;;;;;1.38;77.15;97453.22;5072174;28;20074;-65
2021/01/31 11:48:13;;;;;;;34.72;20.65;;;;;;;1.39;77.06;97451.44;5073673;28;20047;-64
2021/01/31 11:50:40;;;;;;;33.50;20.50;;;;;;;1.43;77.18;97458.75;5073460;28;20044;-65